createdAt,value
2017-11-17T00:01:55.978Z,100.00
2017-11-17T00:04:23.451Z,100.00
2017-11-17T00:06:50.942Z,100.00
2017-11-17T00:09:18.428Z,100.00
2017-11-17T00:11:45.910Z,100.00
2017-11-17T00:14:13.365Z,100.00
2017-11-17T00:16:40.851Z,100.00
2017-11-17T00:19:08.330Z,100.00
2017-11-17T00:21:35.794Z,100.00
2017-11-17T00:24:03.299Z,100.00
2017-11-17T00:26:30.790Z,100.00
2017-11-17T00:28:58.267Z,100.00
2017-11-17T00:31:25.732Z,100.00
2017-11-17T00:33:53.188Z,100.00
2017-11-17T00:36:20.937Z,100.00
2017-11-17T00:38:48.398Z,100.00
2017-11-17T00:41:15.873Z,100.00
2017-11-17T00:43:43.351Z,100.00
2017-11-17T00:46:10.838Z,100.00
2017-11-17T00:48:38.302Z,100.00
2017-11-17T00:51:05.782Z,100.00
2017-11-17T00:53:33.232Z,100.00
2017-11-17T00:56:00.684Z,100.00
2017-11-17T00:58:28.165Z,100.00
2017-11-17T01:00:55.620Z,100.00
2017-11-17T01:03:23.096Z,100.00
2017-11-17T01:05:50.555Z,100.00
2017-11-17T01:08:18.035Z,100.00
2017-11-17T01:10:45.538Z,100.00
2017-11-17T01:13:12.981Z,100.00
2017-11-17T01:15:40.463Z,100.00
2017-11-17T01:18:07.954Z,100.00
2017-11-17T01:20:35.431Z,99.78
2017-11-17T01:23:02.890Z,99.25
2017-11-17T01:25:30.341Z,99.31
2017-11-17T01:27:58.215Z,99.56
2017-11-17T01:30:25.667Z,99.34
2017-11-17T01:32:53.122Z,99.44
2017-11-17T01:35:20.599Z,99.46
2017-11-17T01:37:48.073Z,100.00
2017-11-17T01:40:15.546Z,100.00
2017-11-17T01:42:43.011Z,100.00
2017-11-17T01:45:10.491Z,100.00
2017-11-17T01:47:37.960Z,100.00
2017-11-17T01:50:05.440Z,100.00
2017-11-17T01:52:32.922Z,100.00
2017-11-17T01:55:00.382Z,100.00
2017-11-17T01:57:27.882Z,100.00
2017-11-17T01:59:55.351Z,100.00
2017-11-17T02:02:22.804Z,100.00
2017-11-17T02:04:50.301Z,100.00
2017-11-17T02:07:17.762Z,100.00
2017-11-17T02:09:45.240Z,100.00
2017-11-17T02:12:12.735Z,100.00
2017-11-17T02:14:40.310Z,100.00
2017-11-17T02:17:07.778Z,100.00
2017-11-17T02:19:35.273Z,100.00
2017-11-17T02:22:02.947Z,100.00
2017-11-17T02:24:30.430Z,100.00
2017-11-17T02:26:57.891Z,100.00
2017-11-17T02:29:25.406Z,100.00
2017-11-17T02:31:52.866Z,100.00
2017-11-17T02:34:20.360Z,100.00
2017-11-17T02:36:47.818Z,99.54
2017-11-17T02:39:15.309Z,100.00
2017-11-17T02:41:42.792Z,100.00
2017-11-17T02:44:10.254Z,100.00
2017-11-17T02:46:37.727Z,99.39
2017-11-17T02:49:05.187Z,99.63
2017-11-17T02:51:33.087Z,100.00
2017-11-17T02:54:00.553Z,99.99
2017-11-17T02:56:28.013Z,99.75
2017-11-17T02:58:55.495Z,99.12
2017-11-17T03:01:22.954Z,99.79
2017-11-17T03:03:50.411Z,99.78
2017-11-17T03:06:17.891Z,99.41
2017-11-17T03:08:45.352Z,100.00
2017-11-17T03:11:13.082Z,100.00
2017-11-17T03:13:40.542Z,100.00
2017-11-17T03:16:08.001Z,100.00
2017-11-17T03:18:35.498Z,99.91
2017-11-17T03:21:02.960Z,100.00
2017-11-17T03:23:30.449Z,100.00
2017-11-17T03:25:57.908Z,99.83
2017-11-17T03:28:25.371Z,99.58
2017-11-17T03:30:52.861Z,99.75
2017-11-17T03:33:20.358Z,99.43
2017-11-17T03:35:47.841Z,99.49
2017-11-17T03:38:15.316Z,100.00
2017-11-17T03:40:42.816Z,100.00
2017-11-17T03:43:10.275Z,100.00
2017-11-17T03:45:37.758Z,99.72
2017-11-17T03:48:05.254Z,100.00
2017-11-17T03:50:32.721Z,100.00
2017-11-17T03:53:00.366Z,100.00
2017-11-17T03:55:27.814Z,99.86
2017-11-17T03:57:55.266Z,99.59
2017-11-17T04:00:22.747Z,98.49
2017-11-17T04:02:50.204Z,99.19
2017-11-17T04:05:17.698Z,100.00
2017-11-17T04:07:45.167Z,98.65
2017-11-17T04:10:12.638Z,99.48
2017-11-17T04:12:40.089Z,99.26
2017-11-17T04:15:07.542Z,98.80
2017-11-17T04:17:35.048Z,99.00
2017-11-17T04:20:02.509Z,98.98
2017-11-17T04:22:29.982Z,98.69
2017-11-17T04:24:57.467Z,99.31
2017-11-17T04:27:24.919Z,99.25
2017-11-17T04:29:52.378Z,98.37
2017-11-17T04:32:19.855Z,98.80
2017-11-17T04:34:47.307Z,98.35
2017-11-17T04:37:14.793Z,99.02
2017-11-17T04:39:42.267Z,98.23
2017-11-17T04:42:09.730Z,99.43
2017-11-17T04:44:37.220Z,99.81
2017-11-17T04:47:04.680Z,98.77
2017-11-17T04:49:32.157Z,99.12
2017-11-17T04:51:59.629Z,99.70
2017-11-17T04:54:27.108Z,98.80
2017-11-17T04:56:54.569Z,99.79
2017-11-17T04:59:22.018Z,98.95
2017-11-17T05:01:49.495Z,99.74
2017-11-17T05:04:16.947Z,99.29
2017-11-17T05:06:44.407Z,99.25
2017-11-17T05:09:11.887Z,99.74
2017-11-17T05:11:39.365Z,99.60
2017-11-17T05:14:06.824Z,98.97
2017-11-17T05:16:34.282Z,99.32
2017-11-17T05:19:01.791Z,98.85
2017-11-17T05:21:29.251Z,99.55
2017-11-17T05:23:56.702Z,99.53
2017-11-17T05:26:24.190Z,100.00
2017-11-17T05:28:51.647Z,99.88
2017-11-17T05:31:19.822Z,100.00
2017-11-17T05:33:47.284Z,100.00
2017-11-17T05:36:14.756Z,100.00
2017-11-17T05:38:42.792Z,100.00
2017-11-17T05:41:10.246Z,100.00
2017-11-17T05:43:38.023Z,100.00
2017-11-17T05:46:05.502Z,100.00
2017-11-17T05:48:32.970Z,100.00
2017-11-17T05:51:00.440Z,100.00
2017-11-17T05:53:28.491Z,100.00
2017-11-17T05:55:55.966Z,100.00
2017-11-17T05:58:23.437Z,100.00
2017-11-17T06:00:50.927Z,100.00
2017-11-17T06:03:18.382Z,100.00
2017-11-17T06:05:45.875Z,100.00
2017-11-17T06:08:13.345Z,100.00
2017-11-17T06:10:40.837Z,100.00
2017-11-17T06:13:08.323Z,100.00
2017-11-17T06:15:35.794Z,100.00
2017-11-17T06:18:03.283Z,100.00
2017-11-17T06:20:30.739Z,100.00
2017-11-17T06:22:58.223Z,100.00
2017-11-17T06:25:25.684Z,100.00
2017-11-17T06:27:53.178Z,100.00
2017-11-17T06:30:20.666Z,100.00
2017-11-17T06:32:48.155Z,100.00
2017-11-17T06:35:15.638Z,100.00
2017-11-17T06:37:43.102Z,100.00
2017-11-17T06:40:10.598Z,100.00
2017-11-17T06:42:38.060Z,100.00
2017-11-17T06:45:05.524Z,100.00
2017-11-17T06:47:33.007Z,100.00
2017-11-17T06:50:00.516Z,100.00
2017-11-17T06:52:27.970Z,100.00
2017-11-17T06:54:55.435Z,100.00
2017-11-17T06:57:22.922Z,100.00
2017-11-17T06:59:50.418Z,100.00
2017-11-17T07:02:17.871Z,100.00
2017-11-17T07:04:45.329Z,100.00
2017-11-17T07:07:12.807Z,100.00
2017-11-17T07:09:40.271Z,100.00
2017-11-17T07:12:07.740Z,100.00
2017-11-17T07:14:35.237Z,100.00
2017-11-17T07:17:02.737Z,100.00
2017-11-17T07:19:30.200Z,100.00
2017-11-17T07:21:57.661Z,100.00
2017-11-17T07:24:25.150Z,100.00
2017-11-17T07:26:52.627Z,100.00
2017-11-17T07:29:20.110Z,100.00
2017-11-17T07:31:47.587Z,100.00
2017-11-17T07:34:15.067Z,100.00
2017-11-17T07:36:42.527Z,100.00
2017-11-17T07:39:09.989Z,100.00
2017-11-17T07:41:37.494Z,100.00
2017-11-17T07:44:04.962Z,100.00
2017-11-17T07:46:32.423Z,100.00
2017-11-17T07:48:59.912Z,100.00
2017-11-17T07:51:27.400Z,100.00
2017-11-17T07:53:54.852Z,100.00
2017-11-17T07:56:22.344Z,100.00
2017-11-17T07:58:49.810Z,100.00
2017-11-17T08:01:17.302Z,100.00
2017-11-17T08:03:44.789Z,100.00
2017-11-17T08:06:12.255Z,100.00
2017-11-17T08:08:39.749Z,100.00
2017-11-17T08:11:07.212Z,100.00
2017-11-17T08:13:34.687Z,100.00
2017-11-17T08:16:02.138Z,100.00
2017-11-17T08:18:31.541Z,100.00
2017-11-17T08:20:59.018Z,100.00
2017-11-17T08:23:26.470Z,100.00
2017-11-17T08:25:53.964Z,100.00
2017-11-17T08:28:21.424Z,100.00
2017-11-17T08:30:48.890Z,100.00
2017-11-17T08:33:16.371Z,100.00
2017-11-17T08:35:43.830Z,100.00
2017-11-17T08:38:11.321Z,100.00
2017-11-17T08:40:38.799Z,100.00
2017-11-17T08:43:06.282Z,100.00
2017-11-17T08:45:33.770Z,100.00
2017-11-17T08:48:01.231Z,100.00
2017-11-17T08:50:28.736Z,100.00
2017-11-17T08:52:56.198Z,100.00
2017-11-17T08:55:23.660Z,100.00
2017-11-17T08:57:51.139Z,99.76
2017-11-17T09:00:18.627Z,100.00
2017-11-17T09:02:46.109Z,100.00
2017-11-17T09:05:13.566Z,100.00
2017-11-17T09:07:41.047Z,100.00
2017-11-17T09:10:08.513Z,100.00
2017-11-17T09:12:36.000Z,100.00
2017-11-17T09:15:03.485Z,100.00
2017-11-17T09:17:30.952Z,98.94
2017-11-17T09:19:58.452Z,99.93
2017-11-17T09:22:25.925Z,99.23
2017-11-17T09:24:53.401Z,99.29
2017-11-17T09:27:20.850Z,99.74
2017-11-17T09:29:48.317Z,98.79
2017-11-17T09:32:15.802Z,99.18
2017-11-17T09:34:43.247Z,99.87
2017-11-17T09:37:10.720Z,99.41
2017-11-17T09:39:38.187Z,98.99
2017-11-17T09:42:05.682Z,99.50
2017-11-17T09:44:33.160Z,99.22
2017-11-17T09:47:00.609Z,99.37
2017-11-17T09:49:28.085Z,99.52
2017-11-17T09:51:55.561Z,99.87
2017-11-17T09:54:23.040Z,99.80
2017-11-17T09:56:50.522Z,99.40
2017-11-17T09:59:18.001Z,99.38
2017-11-17T10:01:45.454Z,99.44
2017-11-17T10:04:12.943Z,99.63
2017-11-17T10:06:40.400Z,100.00
2017-11-17T10:09:07.879Z,99.77
2017-11-17T10:11:35.338Z,100.00
2017-11-17T10:14:02.817Z,100.00
2017-11-17T10:16:30.645Z,100.00
2017-11-17T10:18:58.111Z,100.00
2017-11-17T10:21:25.570Z,100.00
2017-11-17T10:23:53.054Z,100.00
2017-11-17T10:26:20.516Z,100.00
2017-11-17T10:28:47.995Z,100.00
2017-11-17T10:31:15.484Z,100.00
2017-11-17T10:33:42.939Z,100.00
2017-11-17T10:36:10.428Z,100.00
2017-11-17T10:38:37.919Z,100.00
2017-11-17T10:41:05.425Z,100.00
2017-11-17T10:43:33.011Z,100.00
2017-11-17T10:46:00.485Z,100.00
2017-11-17T10:48:27.971Z,100.00
2017-11-17T10:50:55.461Z,100.00
2017-11-17T10:53:22.951Z,100.00
2017-11-17T10:55:51.138Z,100.00
2017-11-17T10:58:19.531Z,100.00
2017-11-17T11:00:46.998Z,100.00
2017-11-17T11:03:14.458Z,100.00
2017-11-17T11:05:41.939Z,100.00
2017-11-17T11:08:09.425Z,100.00
2017-11-17T11:10:38.714Z,100.00
2017-11-17T11:13:06.189Z,100.00
2017-11-17T11:15:33.677Z,100.00
2017-11-17T11:18:01.239Z,100.00
2017-11-17T11:20:28.806Z,100.00
2017-11-17T11:22:56.268Z,100.00
2017-11-17T11:25:23.761Z,100.00
2017-11-17T11:27:51.248Z,100.00
2017-11-17T11:30:18.724Z,100.00
2017-11-17T11:32:46.538Z,100.00
2017-11-17T11:35:14.013Z,100.00
2017-11-17T11:37:41.513Z,100.00
2017-11-17T11:40:08.999Z,100.00
2017-11-17T11:42:36.461Z,100.00
2017-11-17T11:45:03.943Z,100.00
2017-11-17T11:47:31.406Z,100.00
2017-11-17T11:49:58.867Z,100.00
2017-11-17T11:52:26.474Z,100.00
2017-11-17T11:54:53.929Z,100.00
2017-11-17T11:57:21.395Z,100.00
2017-11-17T11:59:48.875Z,100.00
2017-11-17T12:02:16.359Z,100.00
2017-11-17T12:04:43.813Z,100.00
2017-11-17T12:07:11.301Z,100.00
2017-11-17T12:09:38.761Z,100.00
2017-11-17T12:12:06.239Z,100.00
2017-11-17T12:14:33.698Z,100.00
2017-11-17T12:17:01.165Z,100.00
2017-11-17T12:19:28.654Z,100.00
2017-11-17T12:21:56.163Z,100.00
2017-11-17T12:24:23.618Z,100.00
2017-11-17T12:26:51.114Z,100.00
2017-11-17T12:29:18.580Z,100.00
2017-11-17T12:31:46.066Z,100.00
2017-11-17T12:34:13.531Z,100.00
2017-11-17T12:36:40.990Z,100.00
2017-11-17T12:39:08.471Z,100.00
2017-11-17T12:41:35.929Z,100.00
2017-11-17T12:44:03.590Z,100.00
2017-11-17T12:46:31.080Z,100.00
2017-11-17T12:48:58.547Z,100.00
2017-11-17T12:51:26.018Z,100.00
2017-11-17T12:53:53.507Z,100.00
2017-11-17T12:56:20.970Z,100.00
2017-11-17T12:58:48.450Z,100.00
2017-11-17T13:01:15.915Z,100.00
2017-11-17T13:03:43.410Z,100.00
2017-11-17T13:06:10.875Z,100.00
2017-11-17T13:08:38.370Z,100.00
2017-11-17T13:11:05.827Z,100.00
2017-11-17T13:13:33.316Z,100.00
2017-11-17T13:16:00.801Z,100.00
2017-11-17T13:18:28.246Z,100.00
2017-11-17T13:20:56.014Z,100.00
2017-11-17T13:23:23.480Z,100.00
2017-11-17T13:25:50.954Z,100.00
2017-11-17T13:28:18.438Z,100.00
2017-11-17T13:30:45.916Z,100.00
2017-11-17T13:33:13.408Z,100.00
2017-11-17T13:35:40.876Z,100.00
2017-11-17T13:38:08.355Z,100.00
2017-11-17T13:40:35.817Z,100.00
2017-11-17T13:43:03.275Z,100.00
2017-11-17T13:45:30.775Z,100.00
2017-11-17T13:47:58.279Z,100.00
2017-11-17T13:50:25.730Z,100.00
2017-11-17T13:52:53.214Z,100.00
2017-11-17T13:55:20.713Z,100.00
2017-11-17T13:57:48.143Z,100.00
2017-11-17T14:00:15.631Z,100.00
2017-11-17T14:02:43.102Z,100.00
2017-11-17T14:05:10.591Z,100.00
2017-11-17T14:07:38.138Z,100.00
2017-11-17T14:10:05.642Z,100.00
2017-11-17T14:12:33.139Z,100.00
2017-11-17T14:15:00.599Z,100.00
2017-11-17T14:17:28.085Z,100.00
2017-11-17T14:19:55.551Z,100.00
2017-11-17T14:22:23.004Z,100.00
2017-11-17T14:24:50.486Z,100.00
2017-11-17T14:27:17.947Z,100.00
2017-11-17T14:29:45.447Z,100.00
2017-11-17T14:32:12.932Z,100.00
2017-11-17T14:34:40.414Z,100.00
2017-11-17T14:37:07.894Z,100.00
2017-11-17T14:39:35.364Z,100.00
2017-11-17T14:42:02.821Z,100.00
2017-11-17T14:44:30.298Z,100.00
2017-11-17T14:46:57.790Z,100.00
2017-11-17T14:49:25.279Z,100.00
2017-11-17T14:51:52.751Z,100.00
2017-11-17T14:54:20.226Z,100.00
2017-11-17T14:56:47.694Z,100.00
2017-11-17T14:59:15.180Z,100.00
2017-11-17T15:01:42.818Z,100.00
2017-11-17T15:04:10.279Z,100.00
2017-11-17T15:06:37.725Z,100.00
2017-11-17T15:09:05.215Z,100.00
2017-11-17T15:11:32.672Z,100.00
2017-11-17T15:14:00.146Z,100.00
2017-11-17T15:16:27.623Z,100.00
2017-11-17T15:18:55.084Z,100.00
2017-11-17T15:21:22.567Z,100.00
2017-11-17T15:23:50.019Z,100.00
2017-11-17T15:26:17.503Z,100.00
2017-11-17T15:28:44.967Z,100.00
2017-11-17T15:31:12.438Z,100.00
2017-11-17T15:33:39.934Z,100.00
2017-11-17T15:36:07.398Z,100.00
2017-11-17T15:38:34.899Z,100.00
2017-11-17T15:41:02.375Z,100.00
2017-11-17T15:43:29.834Z,100.00
2017-11-17T15:45:57.326Z,100.00
2017-11-17T15:48:24.792Z,100.00
2017-11-17T15:50:52.275Z,100.00
2017-11-17T15:53:19.766Z,100.00
2017-11-17T15:55:47.254Z,100.00
2017-11-17T15:58:14.721Z,100.00
2017-11-17T16:00:42.182Z,100.00
2017-11-17T16:03:09.765Z,100.00
2017-11-17T16:05:37.226Z,100.00
2017-11-17T16:08:04.692Z,100.00
2017-11-17T16:10:32.170Z,100.00
2017-11-17T16:12:59.635Z,100.00
2017-11-17T16:15:27.124Z,100.00
2017-11-17T16:17:54.583Z,100.00
2017-11-17T16:20:22.075Z,100.00
2017-11-17T16:22:49.541Z,100.00
2017-11-17T16:25:17.007Z,100.00
2017-11-17T16:27:44.491Z,100.00
2017-11-17T16:30:12.076Z,100.00
2017-11-17T16:32:39.563Z,100.00
2017-11-17T16:35:07.011Z,100.00
2017-11-17T16:37:34.490Z,100.00
2017-11-17T16:40:01.953Z,100.00
2017-11-17T16:42:29.460Z,100.00
2017-11-17T16:44:56.920Z,100.00
2017-11-17T16:47:24.397Z,100.00
2017-11-17T16:49:51.878Z,100.00
2017-11-17T16:52:19.348Z,100.00
2017-11-17T16:54:46.842Z,100.00
2017-11-17T16:57:14.322Z,100.00
2017-11-17T16:59:41.807Z,100.00
2017-11-17T17:02:09.311Z,100.00
2017-11-17T17:04:36.780Z,100.00
2017-11-17T17:07:04.260Z,100.00
2017-11-17T17:09:31.727Z,100.00
2017-11-17T17:11:59.514Z,100.00
2017-11-17T17:14:27.003Z,100.00
2017-11-17T17:16:54.491Z,100.00
2017-11-17T17:19:21.989Z,100.00
2017-11-17T17:21:49.446Z,100.00
2017-11-17T17:24:16.938Z,100.00
2017-11-17T17:26:44.418Z,100.00
2017-11-17T17:29:11.915Z,100.00
2017-11-17T17:31:39.407Z,100.00
2017-11-17T17:34:06.868Z,100.00
2017-11-17T17:36:34.361Z,100.00
2017-11-17T17:39:01.833Z,100.00
2017-11-17T17:41:29.297Z,100.00
2017-11-17T17:43:56.774Z,100.00
2017-11-17T17:46:24.231Z,100.00
2017-11-17T17:48:51.722Z,100.00
2017-11-17T17:51:19.181Z,100.00
2017-11-17T17:53:46.666Z,100.00
2017-11-17T17:56:14.122Z,100.00
2017-11-17T17:58:41.602Z,100.00
2017-11-17T18:01:09.086Z,100.00
2017-11-17T18:03:36.547Z,100.00
2017-11-17T18:06:04.042Z,100.00
2017-11-17T18:08:31.544Z,100.00
2017-11-17T18:10:59.041Z,100.00
2017-11-17T18:13:26.533Z,100.00
2017-11-17T18:15:54.014Z,100.00
2017-11-17T18:18:21.499Z,100.00
2017-11-17T18:20:48.964Z,100.00
2017-11-17T18:23:16.476Z,100.00
2017-11-17T18:25:43.984Z,100.00
2017-11-17T18:28:11.434Z,100.00
2017-11-17T18:30:38.908Z,100.00
2017-11-17T18:33:06.383Z,100.00
2017-11-17T18:35:33.860Z,100.00
2017-11-17T18:38:01.318Z,100.00
2017-11-17T18:40:28.890Z,100.00
2017-11-17T18:42:56.413Z,100.00
2017-11-17T18:45:23.878Z,100.00
2017-11-17T18:47:51.328Z,100.00
2017-11-17T18:50:18.824Z,100.00
2017-11-17T18:52:46.368Z,100.00
2017-11-17T18:55:13.877Z,100.00
2017-11-17T18:57:41.429Z,100.00
2017-11-17T19:00:08.902Z,100.00
2017-11-17T19:02:36.378Z,100.00
2017-11-17T19:05:04.110Z,100.00
2017-11-17T19:07:31.573Z,100.00
2017-11-17T19:09:59.039Z,100.00
2017-11-17T19:12:26.534Z,100.00
2017-11-17T19:14:54.029Z,100.00
2017-11-17T19:17:21.499Z,100.00
2017-11-17T19:19:48.983Z,100.00
2017-11-17T19:22:16.472Z,100.00
2017-11-17T19:24:43.966Z,100.00
2017-11-17T19:27:11.441Z,100.00
2017-11-17T19:29:38.931Z,100.00
2017-11-17T19:32:06.432Z,100.00
2017-11-17T19:34:34.715Z,100.00
2017-11-17T19:37:02.174Z,100.00
2017-11-17T19:39:29.676Z,100.00
2017-11-17T19:41:57.147Z,100.00
2017-11-17T19:44:24.626Z,100.00
2017-11-17T19:46:52.227Z,100.00
2017-11-17T19:49:19.697Z,100.00
2017-11-17T19:51:47.161Z,100.00
2017-11-17T19:54:14.642Z,100.00
2017-11-17T19:56:42.135Z,100.00
2017-11-17T19:59:09.600Z,100.00
2017-11-17T20:01:37.092Z,100.00
2017-11-17T20:04:04.577Z,100.00
2017-11-17T20:06:32.044Z,100.00
2017-11-17T20:08:59.567Z,100.00
2017-11-17T20:11:27.044Z,100.00
2017-11-17T20:13:54.517Z,100.00
2017-11-17T20:16:22.018Z,100.00
2017-11-17T20:18:49.498Z,100.00
2017-11-17T20:21:16.996Z,100.00
2017-11-17T20:23:44.475Z,100.00
2017-11-17T20:26:11.965Z,100.00
2017-11-17T20:28:39.433Z,100.00
2017-11-17T20:31:06.929Z,100.00
2017-11-17T20:33:34.406Z,100.00
2017-11-17T20:36:01.879Z,100.00
2017-11-17T20:38:29.404Z,100.00
2017-11-17T20:40:57.151Z,100.00
2017-11-17T20:43:24.637Z,100.00
2017-11-17T20:45:52.107Z,100.00
2017-11-17T20:48:19.619Z,100.00
2017-11-17T20:50:47.961Z,100.00
2017-11-17T20:53:15.457Z,100.00
2017-11-17T20:55:42.982Z,100.00
2017-11-17T20:58:10.447Z,100.00
2017-11-17T21:00:37.916Z,100.00
2017-11-17T21:03:05.418Z,100.00
2017-11-17T21:05:32.878Z,100.00
2017-11-17T21:08:00.356Z,100.00
2017-11-17T21:10:27.844Z,100.00
2017-11-17T21:12:55.346Z,100.00
2017-11-17T21:15:22.813Z,100.00
2017-11-17T21:17:50.280Z,100.00
2017-11-17T21:20:17.795Z,100.00
2017-11-17T21:22:45.267Z,100.00
2017-11-17T21:25:12.745Z,100.00
2017-11-17T21:27:40.211Z,100.00
2017-11-17T21:30:07.695Z,100.00
2017-11-17T21:32:35.182Z,100.00
2017-11-17T21:35:02.680Z,100.00
2017-11-17T21:37:30.172Z,100.00
2017-11-17T21:39:57.636Z,100.00
2017-11-17T21:42:25.126Z,100.00
2017-11-17T21:44:52.591Z,100.00
2017-11-17T21:47:20.053Z,100.00
2017-11-17T21:49:47.541Z,100.00
2017-11-17T21:52:15.008Z,100.00
2017-11-17T21:54:42.498Z,100.00
2017-11-17T21:57:09.969Z,100.00
2017-11-17T21:59:37.446Z,100.00
2017-11-17T22:02:04.936Z,100.00
2017-11-17T22:04:32.411Z,100.00
2017-11-17T22:06:59.907Z,100.00
2017-11-17T22:09:27.368Z,100.00
2017-11-17T22:11:54.867Z,100.00
2017-11-17T22:14:22.343Z,100.00
2017-11-17T22:16:49.844Z,100.00
2017-11-17T22:19:17.304Z,100.00
2017-11-17T22:21:44.762Z,100.00
2017-11-17T22:24:12.255Z,100.00
2017-11-17T22:26:39.748Z,100.00
2017-11-17T22:29:07.215Z,100.00
2017-11-17T22:31:35.035Z,100.00
2017-11-17T22:34:02.515Z,100.00
2017-11-17T22:36:30.018Z,100.00
2017-11-17T22:38:57.506Z,100.00
2017-11-17T22:41:24.991Z,100.00
2017-11-17T22:43:52.467Z,100.00
2017-11-17T22:46:19.955Z,100.00
2017-11-17T22:48:47.416Z,100.00
2017-11-17T22:51:14.908Z,100.00
2017-11-17T22:53:42.398Z,100.00
2017-11-17T22:56:09.902Z,100.00
2017-11-17T22:58:37.368Z,100.00
2017-11-17T23:01:04.864Z,100.00
2017-11-17T23:03:32.335Z,100.00
2017-11-17T23:05:59.826Z,100.00
2017-11-17T23:08:27.298Z,100.00
2017-11-17T23:10:54.783Z,100.00
2017-11-17T23:13:22.298Z,100.00
2017-11-17T23:15:49.785Z,100.00
2017-11-17T23:18:17.271Z,100.00
2017-11-17T23:20:45.607Z,100.00
2017-11-17T23:23:13.083Z,100.00
2017-11-17T23:25:40.570Z,100.00
2017-11-17T23:28:08.071Z,100.00
2017-11-17T23:30:35.554Z,100.00
2017-11-17T23:33:03.024Z,100.00
2017-11-17T23:35:30.504Z,100.00
2017-11-17T23:37:58.026Z,100.00
2017-11-17T23:40:25.499Z,100.00
2017-11-17T23:42:52.988Z,100.00
2017-11-17T23:45:20.442Z,100.00
2017-11-17T23:47:47.931Z,100.00
2017-11-17T23:50:15.398Z,100.00
2017-11-17T23:52:42.904Z,100.00
2017-11-17T23:55:10.363Z,100.00
2017-11-17T23:57:37.850Z,100.00
